sensor_id;sensor_type;location;lat;lon;timestamp;pressure;altitude;pressure_sealevel;temperature;humidity
30598;BME280;17365;48.878;8.334;2023-07-09T00:02:13;100284.16;;;23.35;59.73
30598;BME280;17365;48.878;8.334;2023-07-09T00:04:38;100295.50;;;23.56;58.28
30598;BME280;17365;48.878;8.334;2023-07-09T00:07:03;100288.44;;;23.38;59.81
30598;BME280;17365;48.878;8.334;2023-07-09T00:09:29;100293.75;;;23.55;59.28
30598;BME280;17365;48.878;8.334;2023-07-09T00:11:54;100294.91;;;23.13;61.54
30598;BME280;17365;48.878;8.334;2023-07-09T00:14:20;100297.97;;;23.04;62.39
30598;BME280;17365;48.878;8.334;2023-07-09T00:16:45;100291.66;;;23.44;59.96
30598;BME280;17365;48.878;8.334;2023-07-09T00:19:15;100289.50;;;23.34;61.02
30598;BME280;17365;48.878;8.334;2023-07-09T00:21:41;100288.91;;;23.46;60.00
30598;BME280;17365;48.878;8.334;2023-07-09T00:24:07;100294.94;;;23.31;61.09
30598;BME280;17365;48.878;8.334;2023-07-09T00:26:32;100296.81;;;23.10;62.43
30598;BME280;17365;48.878;8.334;2023-07-09T00:28:58;100290.91;;;23.41;61.07
30598;BME280;17365;48.878;8.334;2023-07-09T00:31:24;100300.03;;;23.35;61.21
30598;BME280;17365;48.878;8.334;2023-07-09T00:33:49;100300.31;;;23.29;61.41
30598;BME280;17365;48.878;8.334;2023-07-09T00:36:16;100304.03;;;23.25;62.03
30598;BME280;17365;48.878;8.334;2023-07-09T00:38:43;100299.28;;;23.32;61.76
30598;BME280;17365;48.878;8.334;2023-07-09T00:41:14;100304.53;;;23.33;61.60
30598;BME280;17365;48.878;8.334;2023-07-09T00:43:43;100301.09;;;23.31;61.48
30598;BME280;17365;48.878;8.334;2023-07-09T00:46:16;100309.47;;;23.03;62.90
30598;BME280;17365;48.878;8.334;2023-07-09T00:48:42;100310.69;;;22.96;63.21
30598;BME280;17365;48.878;8.334;2023-07-09T00:51:09;100308.91;;;22.97;63.47
30598;BME280;17365;48.878;8.334;2023-07-09T00:53:36;100310.34;;;23.22;61.99
30598;BME280;17365;48.878;8.334;2023-07-09T00:56:03;100312.31;;;22.99;63.18
30598;BME280;17365;48.878;8.334;2023-07-09T00:58:30;100316.69;;;23.18;62.31
30598;BME280;17365;48.878;8.334;2023-07-09T01:00:59;100315.06;;;23.16;62.35
30598;BME280;17365;48.878;8.334;2023-07-09T01:03:39;100315.13;;;22.95;63.77
30598;BME280;17365;48.878;8.334;2023-07-09T01:06:08;100316.19;;;23.10;62.92
30598;BME280;17365;48.878;8.334;2023-07-09T01:08:35;100323.03;;;22.77;64.73
30598;BME280;17365;48.878;8.334;2023-07-09T01:11:01;100318.69;;;22.74;64.67
30598;BME280;17365;48.878;8.334;2023-07-09T01:13:27;100317.59;;;22.80;64.40
30598;BME280;17365;48.878;8.334;2023-07-09T01:15:53;100319.31;;;22.60;65.25
30598;BME280;17365;48.878;8.334;2023-07-09T01:18:18;100314.75;;;22.64;64.81
30598;BME280;17365;48.878;8.334;2023-07-09T01:20:44;100326.06;;;22.67;64.31
30598;BME280;17365;48.878;8.334;2023-07-09T01:23:10;100322.81;;;22.81;63.87
30598;BME280;17365;48.878;8.334;2023-07-09T01:25:36;100325.53;;;22.80;63.88
30598;BME280;17365;48.878;8.334;2023-07-09T01:28:03;100327.63;;;22.72;64.47
30598;BME280;17365;48.878;8.334;2023-07-09T01:30:30;100325.22;;;22.47;65.92
30598;BME280;17365;48.878;8.334;2023-07-09T01:32:56;100327.97;;;22.64;65.06
30598;BME280;17365;48.878;8.334;2023-07-09T01:35:22;100322.25;;;22.54;65.34
30598;BME280;17365;48.878;8.334;2023-07-09T01:37:47;100321.75;;;22.65;64.75
30598;BME280;17365;48.878;8.334;2023-07-09T01:40:14;100326.72;;;22.52;65.69
30598;BME280;17365;48.878;8.334;2023-07-09T01:42:39;100320.41;;;22.56;65.65
30598;BME280;17365;48.878;8.334;2023-07-09T01:45:05;100315.72;;;22.43;66.43
30598;BME280;17365;48.878;8.334;2023-07-09T01:47:31;100314.97;;;22.39;66.66
30598;BME280;17365;48.878;8.334;2023-07-09T01:49:56;100320.47;;;22.55;65.62
30598;BME280;17365;48.878;8.334;2023-07-09T01:52:23;100315.19;;;22.55;65.66
30598;BME280;17365;48.878;8.334;2023-07-09T01:54:49;100313.50;;;22.52;65.67
30598;BME280;17365;48.878;8.334;2023-07-09T01:57:28;100314.59;;;22.48;65.86
30598;BME280;17365;48.878;8.334;2023-07-09T02:00:01;100314.31;;;22.54;65.38
30598;BME280;17365;48.878;8.334;2023-07-09T02:02:28;100314.66;;;22.47;65.75
30598;BME280;17365;48.878;8.334;2023-07-09T02:04:55;100309.38;;;22.47;65.58
30598;BME280;17365;48.878;8.334;2023-07-09T02:07:21;100315.97;;;22.57;64.83
30598;BME280;17365;48.878;8.334;2023-07-09T02:09:47;100310.16;;;22.49;65.33
30598;BME280;17365;48.878;8.334;2023-07-09T02:12:12;100313.00;;;22.44;65.40
30598;BME280;17365;48.878;8.334;2023-07-09T02:14:38;100311.31;;;22.43;65.22
30598;BME280;17365;48.878;8.334;2023-07-09T02:17:04;100308.75;;;22.40;65.52
30598;BME280;17365;48.878;8.334;2023-07-09T02:19:29;100317.75;;;22.16;66.61
30598;BME280;17365;48.878;8.334;2023-07-09T02:21:55;100315.97;;;22.16;66.69
30598;BME280;17365;48.878;8.334;2023-07-09T02:24:20;100323.47;;;22.05;66.95
30598;BME280;17365;48.878;8.334;2023-07-09T02:26:49;100331.38;;;22.27;65.98
30598;BME280;17365;48.878;8.334;2023-07-09T02:29:14;100328.81;;;22.25;65.95
30598;BME280;17365;48.878;8.334;2023-07-09T02:31:39;100323.66;;;22.22;66.27
30598;BME280;17365;48.878;8.334;2023-07-09T02:34:05;100328.63;;;22.08;66.74
30598;BME280;17365;48.878;8.334;2023-07-09T02:36:30;100338.59;;;22.01;67.30
30598;BME280;17365;48.878;8.334;2023-07-09T02:38:55;100338.47;;;22.04;67.03
30598;BME280;17365;48.878;8.334;2023-07-09T02:41:21;100342.16;;;22.00;66.99
30598;BME280;17365;48.878;8.334;2023-07-09T02:43:46;100334.41;;;22.18;66.07
30598;BME280;17365;48.878;8.334;2023-07-09T02:46:11;100337.47;;;22.08;66.72
30598;BME280;17365;48.878;8.334;2023-07-09T02:48:36;100343.25;;;21.95;67.26
30598;BME280;17365;48.878;8.334;2023-07-09T02:51:01;100343.69;;;22.06;66.65
30598;BME280;17365;48.878;8.334;2023-07-09T02:53:27;100345.84;;;21.96;67.50
30598;BME280;17365;48.878;8.334;2023-07-09T02:55:52;100343.19;;;21.96;66.90
30598;BME280;17365;48.878;8.334;2023-07-09T02:58:17;100349.13;;;21.59;68.98
30598;BME280;17365;48.878;8.334;2023-07-09T03:00:42;100348.97;;;21.62;68.54
30598;BME280;17365;48.878;8.334;2023-07-09T03:03:07;100349.06;;;21.61;68.57
30598;BME280;17365;48.878;8.334;2023-07-09T03:07:58;100341.31;;;21.56;68.82
30598;BME280;17365;48.878;8.334;2023-07-09T03:10:23;100338.97;;;21.70;67.90
30598;BME280;17365;48.878;8.334;2023-07-09T03:12:48;100343.59;;;21.65;67.97
30598;BME280;17365;48.878;8.334;2023-07-09T03:15:13;100335.84;;;21.61;68.48
30598;BME280;17365;48.878;8.334;2023-07-09T03:17:38;100341.81;;;21.66;67.99
30598;BME280;17365;48.878;8.334;2023-07-09T03:20:04;100338.25;;;21.67;67.78
30598;BME280;17365;48.878;8.334;2023-07-09T03:22:30;100345.56;;;21.60;68.24
30598;BME280;17365;48.878;8.334;2023-07-09T03:24:55;100341.47;;;21.75;67.55
30598;BME280;17365;48.878;8.334;2023-07-09T03:27:20;100341.81;;;21.66;67.89
30598;BME280;17365;48.878;8.334;2023-07-09T03:29:45;100341.38;;;21.76;67.17
30598;BME280;17365;48.878;8.334;2023-07-09T03:32:11;100344.47;;;21.66;67.65
30598;BME280;17365;48.878;8.334;2023-07-09T03:34:36;100350.59;;;21.21;69.53
30598;BME280;17365;48.878;8.334;2023-07-09T03:37:01;100352.78;;;21.33;69.08
30598;BME280;17365;48.878;8.334;2023-07-09T03:39:26;100354.78;;;21.27;69.03
30598;BME280;17365;48.878;8.334;2023-07-09T03:41:51;100363.66;;;21.47;68.18
30598;BME280;17365;48.878;8.334;2023-07-09T03:44:17;100365.38;;;21.48;68.43
30598;BME280;17365;48.878;8.334;2023-07-09T03:46:42;100365.78;;;21.38;69.06
30598;BME280;17365;48.878;8.334;2023-07-09T03:49:07;100362.47;;;21.33;69.13
30598;BME280;17365;48.878;8.334;2023-07-09T03:51:32;100354.38;;;21.37;68.77
30598;BME280;17365;48.878;8.334;2023-07-09T03:53:57;100366.38;;;21.46;68.69
30598;BME280;17365;48.878;8.334;2023-07-09T03:56:22;100370.72;;;21.47;68.66
30598;BME280;17365;48.878;8.334;2023-07-09T03:58:48;100380.41;;;21.46;68.84
30598;BME280;17365;48.878;8.334;2023-07-09T04:01:13;100382.06;;;21.49;68.48
30598;BME280;17365;48.878;8.334;2023-07-09T04:03:41;100387.38;;;21.71;67.61
30598;BME280;17365;48.878;8.334;2023-07-09T04:06:06;100389.63;;;21.58;68.45
30598;BME280;17365;48.878;8.334;2023-07-09T04:08:31;100393.97;;;21.37;69.55
30598;BME280;17365;48.878;8.334;2023-07-09T04:11:00;100405.06;;;21.69;68.24
30598;BME280;17365;48.878;8.334;2023-07-09T04:13:26;100402.06;;;22.00;67.16
30598;BME280;17365;48.878;8.334;2023-07-09T04:15:53;100408.78;;;22.08;66.74
30598;BME280;17365;48.878;8.334;2023-07-09T04:18:18;100411.81;;;22.20;66.57
30598;BME280;17365;48.878;8.334;2023-07-09T04:20:43;100416.25;;;22.61;64.62
30598;BME280;17365;48.878;8.334;2023-07-09T04:23:12;100418.00;;;22.41;64.99
30598;BME280;17365;48.878;8.334;2023-07-09T04:25:37;100411.09;;;22.16;66.69
30598;BME280;17365;48.878;8.334;2023-07-09T04:28:03;100413.75;;;22.16;66.99
30598;BME280;17365;48.878;8.334;2023-07-09T04:30:28;100406.22;;;22.27;66.80
30598;BME280;17365;48.878;8.334;2023-07-09T04:32:54;100405.25;;;22.30;66.98
30598;BME280;17365;48.878;8.334;2023-07-09T04:35:19;100404.50;;;22.89;64.66
30598;BME280;17365;48.878;8.334;2023-07-09T04:37:44;100400.19;;;23.26;62.96
30598;BME280;17365;48.878;8.334;2023-07-09T04:40:12;100403.41;;;23.51;62.03
30598;BME280;17365;48.878;8.334;2023-07-09T04:42:37;100407.06;;;23.86;61.58
30598;BME280;17365;48.878;8.334;2023-07-09T04:45:07;100407.88;;;24.42;59.36
30598;BME280;17365;48.878;8.334;2023-07-09T04:47:32;100409.28;;;24.31;59.02
30598;BME280;17365;48.878;8.334;2023-07-09T04:49:57;100412.81;;;24.49;59.92
30598;BME280;17365;48.878;8.334;2023-07-09T04:52:22;100408.81;;;24.58;58.79
30598;BME280;17365;48.878;8.334;2023-07-09T04:54:48;100406.38;;;24.53;59.25
30598;BME280;17365;48.878;8.334;2023-07-09T04:57:15;100401.16;;;24.69;59.23
30598;BME280;17365;48.878;8.334;2023-07-09T04:59:40;100408.19;;;24.53;60.13
30598;BME280;17365;48.878;8.334;2023-07-09T05:02:06;100410.16;;;24.49;59.16
30598;BME280;17365;48.878;8.334;2023-07-09T05:04:32;100402.72;;;24.73;58.08
30598;BME280;17365;48.878;8.334;2023-07-09T05:06:57;100398.59;;;25.01;57.35
30598;BME280;17365;48.878;8.334;2023-07-09T05:09:23;100411.34;;;25.60;56.17
30598;BME280;17365;48.878;8.334;2023-07-09T05:11:48;100409.03;;;24.71;58.76
30598;BME280;17365;48.878;8.334;2023-07-09T05:14:14;100404.25;;;24.94;58.77
30598;BME280;17365;48.878;8.334;2023-07-09T05:16:39;100409.69;;;24.91;58.35
30598;BME280;17365;48.878;8.334;2023-07-09T05:19:04;100411.59;;;25.22;57.69
30598;BME280;17365;48.878;8.334;2023-07-09T05:21:31;100416.63;;;24.61;59.42
30598;BME280;17365;48.878;8.334;2023-07-09T05:23:57;100405.66;;;24.84;58.92
30598;BME280;17365;48.878;8.334;2023-07-09T05:26:22;100408.75;;;25.10;58.10
30598;BME280;17365;48.878;8.334;2023-07-09T05:28:47;100402.16;;;24.84;58.27
30598;BME280;17365;48.878;8.334;2023-07-09T05:31:14;100409.41;;;25.31;57.90
30598;BME280;17365;48.878;8.334;2023-07-09T05:33:40;100405.31;;;25.41;56.31
30598;BME280;17365;48.878;8.334;2023-07-09T05:36:05;100401.38;;;25.64;54.84
30598;BME280;17365;48.878;8.334;2023-07-09T05:38:30;100406.81;;;25.94;53.18
30598;BME280;17365;48.878;8.334;2023-07-09T05:41:02;100395.94;;;26.12;53.83
30598;BME280;17365;48.878;8.334;2023-07-09T05:43:29;100404.44;;;25.56;54.50
30598;BME280;17365;48.878;8.334;2023-07-09T05:45:54;100400.97;;;26.33;52.56
30598;BME280;17365;48.878;8.334;2023-07-09T05:48:19;100400.47;;;26.42;51.89
30598;BME280;17365;48.878;8.334;2023-07-09T05:50:44;100393.25;;;26.28;51.70
30598;BME280;17365;48.878;8.334;2023-07-09T05:53:09;100406.22;;;25.73;53.66
30598;BME280;17365;48.878;8.334;2023-07-09T05:55:35;100405.44;;;26.62;52.20
30598;BME280;17365;48.878;8.334;2023-07-09T05:58:00;100400.19;;;27.19;50.87
30598;BME280;17365;48.878;8.334;2023-07-09T06:00:25;100403.66;;;26.91;51.00
30598;BME280;17365;48.878;8.334;2023-07-09T06:02:50;100405.72;;;27.31;50.24
30598;BME280;17365;48.878;8.334;2023-07-09T06:05:16;100401.41;;;26.99;50.56
30598;BME280;17365;48.878;8.334;2023-07-09T06:07:41;100404.06;;;26.85;50.73
30598;BME280;17365;48.878;8.334;2023-07-09T06:10:06;100402.75;;;27.35;49.54
30598;BME280;17365;48.878;8.334;2023-07-09T06:12:32;100405.69;;;27.16;49.69
30598;BME280;17365;48.878;8.334;2023-07-09T06:14:58;100399.69;;;27.27;49.95
30598;BME280;17365;48.878;8.334;2023-07-09T06:17:23;100397.72;;;27.31;49.35
30598;BME280;17365;48.878;8.334;2023-07-09T06:19:48;100400.06;;;27.49;48.99
30598;BME280;17365;48.878;8.334;2023-07-09T06:22:13;100399.38;;;27.60;48.84
30598;BME280;17365;48.878;8.334;2023-07-09T06:24:38;100394.28;;;27.84;47.91
30598;BME280;17365;48.878;8.334;2023-07-09T06:27:04;100395.34;;;27.81;47.90
30598;BME280;17365;48.878;8.334;2023-07-09T06:29:29;100388.53;;;27.49;49.86
30598;BME280;17365;48.878;8.334;2023-07-09T06:31:54;100393.13;;;26.90;52.06
30598;BME280;17365;48.878;8.334;2023-07-09T06:34:20;100393.94;;;26.62;51.92
30598;BME280;17365;48.878;8.334;2023-07-09T06:36:45;100398.66;;;27.15;50.76
30598;BME280;17365;48.878;8.334;2023-07-09T06:39:10;100390.44;;;27.47;50.09
30598;BME280;17365;48.878;8.334;2023-07-09T06:41:36;100400.94;;;27.21;50.40
30598;BME280;17365;48.878;8.334;2023-07-09T06:44:05;100396.88;;;26.57;51.66
30598;BME280;17365;48.878;8.334;2023-07-09T06:46:30;100400.34;;;26.74;52.42
30598;BME280;17365;48.878;8.334;2023-07-09T06:48:56;100399.59;;;27.00;51.53
30598;BME280;17365;48.878;8.334;2023-07-09T06:51:21;100405.88;;;26.40;52.89
30598;BME280;17365;48.878;8.334;2023-07-09T06:53:46;100409.66;;;26.21;53.98
30598;BME280;17365;48.878;8.334;2023-07-09T06:56:15;100412.06;;;26.55;53.56
30598;BME280;17365;48.878;8.334;2023-07-09T06:58:40;100413.03;;;27.13;51.08
30598;BME280;17365;48.878;8.334;2023-07-09T07:01:05;100402.72;;;27.49;49.71
30598;BME280;17365;48.878;8.334;2023-07-09T07:03:31;100409.00;;;27.77;49.68
30598;BME280;17365;48.878;8.334;2023-07-09T07:05:57;100408.47;;;27.15;50.67
30598;BME280;17365;48.878;8.334;2023-07-09T07:08:23;100403.78;;;26.46;54.10
30598;BME280;17365;48.878;8.334;2023-07-09T07:10:48;100403.47;;;27.51;51.56
30598;BME280;17365;48.878;8.334;2023-07-09T07:13:14;100400.13;;;27.62;51.40
30598;BME280;17365;48.878;8.334;2023-07-09T07:15:40;100403.34;;;27.81;50.83
30598;BME280;17365;48.878;8.334;2023-07-09T07:18:05;100400.00;;;27.22;52.44
30598;BME280;17365;48.878;8.334;2023-07-09T07:20:31;100391.81;;;27.81;51.55
30598;BME280;17365;48.878;8.334;2023-07-09T07:22:56;100388.47;;;27.92;51.15
30598;BME280;17365;48.878;8.334;2023-07-09T07:25:22;100390.84;;;28.36;50.44
30598;BME280;17365;48.878;8.334;2023-07-09T07:27:47;100387.06;;;28.26;50.20
30598;BME280;17365;48.878;8.334;2023-07-09T07:30:12;100391.50;;;28.39;50.37
30598;BME280;17365;48.878;8.334;2023-07-09T07:32:38;100380.44;;;28.58;48.96
30598;BME280;17365;48.878;8.334;2023-07-09T07:35:07;100383.44;;;28.66;49.39
30598;BME280;17365;48.878;8.334;2023-07-09T07:37:32;100378.59;;;28.46;49.57
30598;BME280;17365;48.878;8.334;2023-07-09T07:39:57;100387.50;;;28.97;48.11
30598;BME280;17365;48.878;8.334;2023-07-09T07:42:23;100379.13;;;28.64;47.85
30598;BME280;17365;48.878;8.334;2023-07-09T07:44:48;100384.44;;;28.38;49.44
30598;BME280;17365;48.878;8.334;2023-07-09T07:47:13;100389.75;;;28.91;48.13
30598;BME280;17365;48.878;8.334;2023-07-09T07:49:38;100382.38;;;29.07;47.01
30598;BME280;17365;48.878;8.334;2023-07-09T07:52:04;100375.28;;;29.19;47.49
30598;BME280;17365;48.878;8.334;2023-07-09T07:54:30;100376.88;;;29.34;46.82
30598;BME280;17365;48.878;8.334;2023-07-09T07:56:56;100377.66;;;28.85;47.83
30598;BME280;17365;48.878;8.334;2023-07-09T07:59:21;100374.34;;;29.07;47.37
30598;BME280;17365;48.878;8.334;2023-07-09T08:01:47;100369.44;;;29.63;46.50
30598;BME280;17365;48.878;8.334;2023-07-09T08:04:13;100367.31;;;29.55;45.70
30598;BME280;17365;48.878;8.334;2023-07-09T08:06:39;100365.53;;;29.80;45.32
30598;BME280;17365;48.878;8.334;2023-07-09T08:09:04;100365.59;;;29.91;45.29
30598;BME280;17365;48.878;8.334;2023-07-09T08:11:29;100362.63;;;30.07;45.37
30598;BME280;17365;48.878;8.334;2023-07-09T08:13:57;100365.56;;;29.67;44.80
30598;BME280;17365;48.878;8.334;2023-07-09T08:16:22;100354.34;;;29.25;46.04
30598;BME280;17365;48.878;8.334;2023-07-09T08:18:47;100356.66;;;29.79;45.23
30598;BME280;17365;48.878;8.334;2023-07-09T08:21:13;100352.97;;;30.04;45.36
30598;BME280;17365;48.878;8.334;2023-07-09T08:23:39;100353.25;;;29.89;44.71
30598;BME280;17365;48.878;8.334;2023-07-09T08:26:04;100355.56;;;30.06;44.33
30598;BME280;17365;48.878;8.334;2023-07-09T08:28:29;100356.63;;;30.03;44.27
30598;BME280;17365;48.878;8.334;2023-07-09T08:30:55;100346.13;;;30.13;44.55
30598;BME280;17365;48.878;8.334;2023-07-09T08:33:21;100351.16;;;30.29;44.08
30598;BME280;17365;48.878;8.334;2023-07-09T08:35:50;100357.34;;;30.29;44.29
30598;BME280;17365;48.878;8.334;2023-07-09T08:38:16;100353.84;;;30.40;43.85
30598;BME280;17365;48.878;8.334;2023-07-09T08:40:41;100346.19;;;30.35;44.17
30598;BME280;17365;48.878;8.334;2023-07-09T08:44:08;100345.59;;;30.54;44.00
30598;BME280;17365;48.878;8.334;2023-07-09T08:46:03;100355.97;;;30.59;43.24
30598;BME280;17365;48.878;8.334;2023-07-09T08:48:31;100345.78;;;30.75;43.00
30598;BME280;17365;48.878;8.334;2023-07-09T08:50:59;100348.59;;;30.85;42.30
30598;BME280;17365;48.878;8.334;2023-07-09T08:53:33;100345.53;;;31.00;42.18
30598;BME280;17365;48.878;8.334;2023-07-09T08:56:00;100349.44;;;30.96;40.90
30598;BME280;17365;48.878;8.334;2023-07-09T08:58:26;100351.53;;;30.93;41.18
30598;BME280;17365;48.878;8.334;2023-07-09T09:00:54;100350.28;;;30.63;42.10
30598;BME280;17365;48.878;8.334;2023-07-09T09:03:27;100355.78;;;30.95;41.63
30598;BME280;17365;48.878;8.334;2023-07-09T09:05:54;100347.13;;;31.03;41.27
30598;BME280;17365;48.878;8.334;2023-07-09T09:08:39;100348.94;;;31.14;40.90
30598;BME280;17365;48.878;8.334;2023-07-09T09:13:36;100343.22;;;31.41;39.85
30598;BME280;17365;48.878;8.334;2023-07-09T09:16:04;100347.28;;;31.67;39.92
30598;BME280;17365;48.878;8.334;2023-07-09T09:18:36;100347.56;;;31.75;38.78
30598;BME280;17365;48.878;8.334;2023-07-09T09:21:21;100341.53;;;31.40;38.03
30598;BME280;17365;48.878;8.334;2023-07-09T09:23:52;100338.13;;;31.81;38.16
30598;BME280;17365;48.878;8.334;2023-07-09T09:26:30;100340.03;;;31.90;38.01
30598;BME280;17365;48.878;8.334;2023-07-09T09:28:56;100339.16;;;32.01;37.58
30598;BME280;17365;48.878;8.334;2023-07-09T09:31:23;100333.63;;;31.70;37.04
30598;BME280;17365;48.878;8.334;2023-07-09T09:33:49;100326.94;;;32.08;37.01
30598;BME280;17365;48.878;8.334;2023-07-09T09:36:16;100320.69;;;32.39;37.24
30598;BME280;17365;48.878;8.334;2023-07-09T09:38:41;100309.97;;;32.49;37.39
30598;BME280;17365;48.878;8.334;2023-07-09T09:41:29;100308.09;;;32.70;36.73
30598;BME280;17365;48.878;8.334;2023-07-09T09:43:55;100315.09;;;32.83;36.00
30598;BME280;17365;48.878;8.334;2023-07-09T09:46:21;100317.09;;;32.60;36.37
30598;BME280;17365;48.878;8.334;2023-07-09T09:48:47;100309.94;;;32.70;36.72
30598;BME280;17365;48.878;8.334;2023-07-09T09:51:13;100314.72;;;32.66;36.57
30598;BME280;17365;48.878;8.334;2023-07-09T09:53:40;100313.03;;;32.86;36.77
30598;BME280;17365;48.878;8.334;2023-07-09T09:56:10;100310.97;;;33.09;35.51
30598;BME280;17365;48.878;8.334;2023-07-09T09:58:39;100307.66;;;32.65;36.65
30598;BME280;17365;48.878;8.334;2023-07-09T10:01:04;100302.19;;;32.97;36.29
30598;BME280;17365;48.878;8.334;2023-07-09T10:03:33;100291.56;;;32.24;37.23
30598;BME280;17365;48.878;8.334;2023-07-09T10:06:00;100287.19;;;32.74;36.87
30598;BME280;17365;48.878;8.334;2023-07-09T10:08:52;100280.22;;;32.92;35.72
30598;BME280;17365;48.878;8.334;2023-07-09T10:11:25;100278.50;;;32.91;35.22
30598;BME280;17365;48.878;8.334;2023-07-09T10:13:55;100273.97;;;32.61;36.18
30598;BME280;17365;48.878;8.334;2023-07-09T10:16:33;100267.97;;;33.09;35.28
30598;BME280;17365;48.878;8.334;2023-07-09T10:21:34;100269.50;;;33.02;34.04
30598;BME280;17365;48.878;8.334;2023-07-09T10:26:56;100258.31;;;32.97;33.80
30598;BME280;17365;48.878;8.334;2023-07-09T10:34:38;100260.06;;;33.27;33.70
30598;BME280;17365;48.878;8.334;2023-07-09T10:37:21;100248.50;;;33.36;33.36
30598;BME280;17365;48.878;8.334;2023-07-09T10:39:49;100252.06;;;33.75;32.86
30598;BME280;17365;48.878;8.334;2023-07-09T10:45:12;100246.78;;;33.74;33.42
30598;BME280;17365;48.878;8.334;2023-07-09T10:47:41;100255.34;;;33.89;32.12
30598;BME280;17365;48.878;8.334;2023-07-09T10:50:18;100246.09;;;33.72;32.29
30598;BME280;17365;48.878;8.334;2023-07-09T10:52:49;100243.97;;;34.04;32.25
30598;BME280;17365;48.878;8.334;2023-07-09T10:55:18;100237.72;;;34.13;31.25
30598;BME280;17365;48.878;8.334;2023-07-09T10:57:48;100238.41;;;34.15;31.48
30598;BME280;17365;48.878;8.334;2023-07-09T11:00:17;100236.09;;;34.40;32.58
30598;BME280;17365;48.878;8.334;2023-07-09T11:02:43;100236.59;;;34.53;31.63
30598;BME280;17365;48.878;8.334;2023-07-09T11:05:09;100240.78;;;34.28;32.34
30598;BME280;17365;48.878;8.334;2023-07-09T11:10:04;100228.16;;;34.38;33.18
30598;BME280;17365;48.878;8.334;2023-07-09T11:12:36;100226.75;;;34.34;33.59
30598;BME280;17365;48.878;8.334;2023-07-09T11:15:14;100226.31;;;34.39;32.70
30598;BME280;17365;48.878;8.334;2023-07-09T11:17:43;100226.63;;;34.63;32.27
30598;BME280;17365;48.878;8.334;2023-07-09T11:20:17;100214.56;;;34.67;31.79
30598;BME280;17365;48.878;8.334;2023-07-09T11:22:50;100215.31;;;34.60;31.70
30598;BME280;17365;48.878;8.334;2023-07-09T11:25:15;100215.31;;;34.87;31.61
30598;BME280;17365;48.878;8.334;2023-07-09T11:27:53;100216.44;;;34.85;31.71
30598;BME280;17365;48.878;8.334;2023-07-09T11:30:26;100210.97;;;35.04;31.44
30598;BME280;17365;48.878;8.334;2023-07-09T11:32:53;100199.22;;;35.23;31.10
30598;BME280;17365;48.878;8.334;2023-07-09T11:35:21;100200.50;;;35.01;30.68
30598;BME280;17365;48.878;8.334;2023-07-09T11:37:46;100208.19;;;34.96;30.03
30598;BME280;17365;48.878;8.334;2023-07-09T11:40:12;100215.38;;;35.05;29.75
30598;BME280;17365;48.878;8.334;2023-07-09T11:42:52;100205.63;;;35.40;29.20
30598;BME280;17365;48.878;8.334;2023-07-09T11:45:20;100204.06;;;35.55;30.39
30598;BME280;17365;48.878;8.334;2023-07-09T11:47:51;100198.66;;;35.55;29.49
30598;BME280;17365;48.878;8.334;2023-07-09T11:50:22;100199.13;;;35.50;30.12
30598;BME280;17365;48.878;8.334;2023-07-09T11:52:52;100194.66;;;35.23;29.54
30598;BME280;17365;48.878;8.334;2023-07-09T11:57:47;100200.09;;;35.67;29.72
30598;BME280;17365;48.878;8.334;2023-07-09T12:00:12;100199.53;;;35.38;29.41
30598;BME280;17365;48.878;8.334;2023-07-09T12:02:38;100192.97;;;35.40;28.99
30598;BME280;17365;48.878;8.334;2023-07-09T12:05:03;100197.88;;;35.27;29.10
30598;BME280;17365;48.878;8.334;2023-07-09T12:07:29;100189.19;;;35.69;28.93
30598;BME280;17365;48.878;8.334;2023-07-09T12:09:54;100180.34;;;35.41;29.37
30598;BME280;17365;48.878;8.334;2023-07-09T12:12:24;100187.31;;;35.69;29.42
30598;BME280;17365;48.878;8.334;2023-07-09T12:14:50;100170.16;;;35.35;29.77
30598;BME280;17365;48.878;8.334;2023-07-09T12:17:15;100171.66;;;35.91;29.27
30598;BME280;17365;48.878;8.334;2023-07-09T12:19:41;100171.16;;;35.77;29.47
30598;BME280;17365;48.878;8.334;2023-07-09T12:22:09;100171.00;;;35.97;28.55
30598;BME280;17365;48.878;8.334;2023-07-09T12:24:39;100168.69;;;35.40;28.47
30598;BME280;17365;48.878;8.334;2023-07-09T12:27:17;100162.88;;;35.71;28.32
30598;BME280;17365;48.878;8.334;2023-07-09T12:29:43;100163.06;;;35.95;28.18
30598;BME280;17365;48.878;8.334;2023-07-09T12:32:12;100160.75;;;35.82;27.75
30598;BME280;17365;48.878;8.334;2023-07-09T12:34:38;100153.72;;;36.15;27.16
30598;BME280;17365;48.878;8.334;2023-07-09T12:37:04;100155.81;;;36.30;26.45
30598;BME280;17365;48.878;8.334;2023-07-09T12:39:29;100152.50;;;36.36;25.38
30598;BME280;17365;48.878;8.334;2023-07-09T12:41:58;100138.81;;;36.03;25.44
30598;BME280;17365;48.878;8.334;2023-07-09T12:44:24;100141.94;;;35.91;25.80
30598;BME280;17365;48.878;8.334;2023-07-09T12:46:50;100142.97;;;35.98;26.31
30598;BME280;17365;48.878;8.334;2023-07-09T12:49:23;100135.22;;;35.95;25.88
30598;BME280;17365;48.878;8.334;2023-07-09T12:51:50;100119.06;;;36.37;26.56
30598;BME280;17365;48.878;8.334;2023-07-09T12:54:16;100124.59;;;36.35;26.47
30598;BME280;17365;48.878;8.334;2023-07-09T12:56:42;100116.34;;;37.03;25.88
30598;BME280;17365;48.878;8.334;2023-07-09T13:01:39;100103.78;;;36.62;25.75
30598;BME280;17365;48.878;8.334;2023-07-09T13:04:05;100110.03;;;36.62;25.39
30598;BME280;17365;48.878;8.334;2023-07-09T13:06:34;100102.56;;;36.14;25.53
30598;BME280;17365;48.878;8.334;2023-07-09T13:08:59;100103.09;;;36.60;25.43
30598;BME280;17365;48.878;8.334;2023-07-09T13:11:26;100099.16;;;36.38;25.53
30598;BME280;17365;48.878;8.334;2023-07-09T13:13:58;100097.94;;;36.99;24.97
30598;BME280;17365;48.878;8.334;2023-07-09T13:16:24;100104.00;;;37.01;24.81